Time,TemperatureF,DewpointF,PressureIn,WindDirection,WindDirectionDegrees,WindSpeedMPH,WindSpeedGustMPH,Humidity,HourlyPrecipIn,Conditions,Clouds,dailyrainin,SoftwareType,DateUTC
2013-10-24 00:02:00,31.0,26.0,-100.00,NNW,335,4.0,10.0,83,-99.99,,,-99.99,,2013-10-24 05:02:00,
2013-10-24 00:22:00,31.0,26.0,-100.00,NNW,335,4.0,10.0,83,-99.99,,,-99.99,,2013-10-24 05:22:00,
2013-10-24 00:34:00,31.0,26.0,-100.00,NNW,335,4.0,10.0,83,-99.99,,,-99.99,,2013-10-24 05:34:00,
2013-10-24 00:43:00,31.0,26.0,-100.00,NNW,335,4.0,10.0,83,-99.99,,,-99.99,,2013-10-24 05:43:00,
2013-10-24 00:53:00,31.0,26.0,-100.00,NNW,335,4.0,10.0,83,-99.99,,,-99.99,,2013-10-24 05:53:00,
2013-10-24 01:22:00,31.0,27.0,-100.00,WNW,285,6.0,10.0,87,-99.99,,,-99.99,,2013-10-24 06:22:00,
2013-10-24 01:42:00,31.0,27.0,-100.00,WNW,285,6.0,10.0,87,-99.99,,,-99.99,,2013-10-24 06:42:00,
2013-10-24 01:52:00,31.0,27.0,-100.00,WNW,285,6.0,10.0,87,-99.99,,,-99.99,,2013-10-24 06:52:00,
2013-10-24 02:02:00,31.0,27.0,-100.00,WNW,285,6.0,10.0,87,-99.99,,,-99.99,,2013-10-24 07:02:00,
2013-10-24 02:22:00,31.0,28.0,-100.00,NNW,335,9.0,15.0,92,-99.99,,,-99.99,,2013-10-24 07:22:00,
2013-10-24 02:32:00,31.0,28.0,-100.00,NNW,335,9.0,15.0,92,-99.99,,,-99.99,,2013-10-24 07:32:00,
2013-10-24 02:42:00,31.0,28.0,-100.00,NNW,335,9.0,15.0,92,-99.99,,,-99.99,,2013-10-24 07:42:00,
2013-10-24 02:52:00,31.0,28.0,-100.00,NNW,335,9.0,15.0,92,-99.99,,,-99.99,,2013-10-24 07:52:00,
2013-10-24 03:02:00,31.0,28.0,-100.00,NNW,335,9.0,15.0,92,-99.99,,,-99.99,,2013-10-24 08:02:00,
2013-10-24 04:22:00,31.0,28.0,-100.00,NNW,340,9.0,14.0,90,-99.99,,,-99.99,,2013-10-24 09:22:00,
2013-10-24 04:33:00,31.0,28.0,-100.00,NNW,340,9.0,14.0,90,-99.99,,,-99.99,,2013-10-24 09:33:00,
2013-10-24 04:43:00,31.0,28.0,-100.00,NNW,340,9.0,14.0,90,-99.99,,,-99.99,,2013-10-24 09:43:00,
2013-10-24 04:53:00,31.0,28.0,-100.00,NNW,340,9.0,14.0,90,-99.99,,,-99.99,,2013-10-24 09:53:00,
2013-10-24 05:03:00,31.0,28.0,-100.00,NNW,340,9.0,14.0,90,-99.99,,,-99.99,,2013-10-24 10:03:00,
2013-10-24 05:43:00,31.0,30.0,-100.00,NW,325,5.0,13.0,95,-99.99,,,-99.99,,2013-10-24 10:43:00,
2013-10-24 05:53:00,31.0,30.0,-100.00,NW,325,5.0,13.0,95,-99.99,,,-99.99,,2013-10-24 10:53:00,
2013-10-24 06:02:00,31.0,30.0,-100.00,NW,325,5.0,13.0,95,-99.99,,,-99.99,,2013-10-24 11:02:00,
2013-10-24 06:22:00,31.0,30.0,-100.00,NNW,340,4.0,12.0,95,-99.99,,,-99.99,,2013-10-24 11:22:00,
2013-10-24 06:33:00,31.0,30.0,-100.00,NNW,340,4.0,12.0,95,-99.99,,,-99.99,,2013-10-24 11:33:00,
2013-10-24 06:42:00,31.0,30.0,-100.00,NNW,340,4.0,12.0,95,-99.99,,,-99.99,,2013-10-24 11:42:00,
2013-10-24 06:53:00,31.0,30.0,-100.00,NNW,340,4.0,12.0,95,-99.99,,,-99.99,,2013-10-24 11:53:00,
2013-10-24 07:01:00,31.0,30.0,-100.00,NNW,340,4.0,12.0,95,-99.99,,,-99.99,,2013-10-24 12:01:00,
2013-10-24 07:22:00,31.0,30.0,-100.00,NW,325,5.0,11.0,96,-99.99,,,-99.99,,2013-10-24 12:22:00,
2013-10-24 07:32:00,31.0,30.0,-100.00,NW,325,5.0,11.0,96,-99.99,,,-99.99,,2013-10-24 12:32:00,
2013-10-24 07:42:00,31.0,30.0,-100.00,NW,325,5.0,11.0,96,-99.99,,,-99.99,,2013-10-24 12:42:00,
2013-10-24 07:52:00,31.0,30.0,-100.00,NW,325,5.0,11.0,96,-99.99,,,-99.99,,2013-10-24 12:52:00,
2013-10-24 08:01:00,31.0,30.0,-100.00,NW,325,5.0,11.0,96,-99.99,,,-99.99,,2013-10-24 13:01:00,
2013-10-24 08:22:00,31.0,30.0,-100.00,NW,320,5.0,16.0,95,-99.99,,,-99.99,,2013-10-24 13:22:00,
2013-10-24 08:32:00,31.0,30.0,-100.00,NW,320,5.0,16.0,95,-99.99,,,-99.99,,2013-10-24 13:32:00,
2013-10-24 08:42:00,31.0,30.0,-100.00,NW,320,5.0,16.0,95,-99.99,,,-99.99,,2013-10-24 13:42:00,
2013-10-24 08:52:00,31.0,30.0,-100.00,NW,320,5.0,16.0,95,-99.99,,,-99.99,,2013-10-24 13:52:00,
2013-10-24 09:01:00,31.0,30.0,-100.00,NW,320,5.0,16.0,95,-99.99,,,-99.99,,2013-10-24 14:01:00,
2013-10-24 09:22:00,32.0,30.0,-100.00,NNW,335,6.0,17.0,93,-99.99,,,-99.99,,2013-10-24 14:22:00,
2013-10-24 09:42:00,32.0,31.0,-100.00,NW,310,8.0,17.0,93,-99.99,,,-99.99,,2013-10-24 14:42:00,
2013-10-24 09:52:00,32.0,31.0,-100.00,NW,310,8.0,17.0,93,-99.99,,,-99.99,,2013-10-24 14:52:00,
2013-10-24 10:01:00,32.0,31.0,-100.00,NW,310,8.0,17.0,93,-99.99,,,-99.99,,2013-10-24 15:01:00,
2013-10-24 10:43:00,33.0,30.0,-100.00,NNW,330,10.0,19.0,88,-99.99,,,-99.99,,2013-10-24 15:43:00,
2013-10-24 10:53:00,33.0,30.0,-100.00,NNW,330,10.0,19.0,88,-99.99,,,-99.99,,2013-10-24 15:53:00,
2013-10-24 11:03:00,33.0,30.0,-100.00,NNW,330,10.0,19.0,88,-99.99,,,-99.99,,2013-10-24 16:03:00,
2013-10-24 11:23:00,34.0,29.0,-100.00,NNW,335,10.0,19.0,79,-99.99,,,-99.99,,2013-10-24 16:23:00,
2013-10-24 11:32:00,34.0,29.0,-100.00,NNW,335,10.0,19.0,79,-99.99,,,-99.99,,2013-10-24 16:32:00,
2013-10-24 11:43:00,34.0,29.0,-100.00,NNW,335,10.0,19.0,79,-99.99,,,-99.99,,2013-10-24 16:43:00,
2013-10-24 11:53:00,34.0,29.0,-100.00,NNW,335,10.0,19.0,79,-99.99,,,-99.99,,2013-10-24 16:53:00,
2013-10-24 12:03:00,34.0,29.0,-100.00,NNW,335,10.0,19.0,79,-99.99,,,-99.99,,2013-10-24 17:03:00,
2013-10-24 12:22:00,35.0,28.0,-100.00,NW,325,11.0,16.0,75,-99.99,,,-99.99,,2013-10-24 17:22:00,
2013-10-24 12:43:00,35.0,28.0,-100.00,NNW,340,9.0,16.0,74,-99.99,,,-99.99,,2013-10-24 17:43:00,
2013-10-24 12:52:00,35.0,28.0,-100.00,NNW,340,9.0,16.0,74,-99.99,,,-99.99,,2013-10-24 17:52:00,
2013-10-24 13:02:00,35.0,28.0,-100.00,NNW,340,9.0,16.0,74,-99.99,,,-99.99,,2013-10-24 18:02:00,
2013-10-24 13:23:00,36.0,26.0,-100.00,NNW,340,12.0,20.0,66,-99.99,,,-99.99,,2013-10-24 18:23:00,
2013-10-24 13:32:00,36.0,26.0,-100.00,NNW,340,12.0,20.0,66,-99.99,,,-99.99,,2013-10-24 18:32:00,
2013-10-24 13:42:00,36.0,26.0,-100.00,NNW,340,12.0,20.0,66,-99.99,,,-99.99,,2013-10-24 18:42:00,
2013-10-24 13:53:00,36.0,26.0,-100.00,NNW,340,12.0,20.0,66,-99.99,,,-99.99,,2013-10-24 18:53:00,
2013-10-24 14:02:00,36.0,26.0,-100.00,NNW,340,12.0,20.0,66,-99.99,,,-99.99,,2013-10-24 19:02:00,
2013-10-24 14:22:00,37.0,25.0,-100.00,NNW,340,9.0,20.0,61,-99.99,,,-99.99,,2013-10-24 19:22:00,
2013-10-24 14:32:00,37.0,25.0,-100.00,NNW,340,9.0,20.0,61,-99.99,,,-99.99,,2013-10-24 19:32:00,
2013-10-24 14:43:00,37.0,25.0,-100.00,NNW,340,9.0,20.0,61,-99.99,,,-99.99,,2013-10-24 19:43:00,
2013-10-24 14:53:00,37.0,25.0,-100.00,NNW,340,9.0,20.0,61,-99.99,,,-99.99,,2013-10-24 19:53:00,
2013-10-24 15:02:00,37.0,25.0,-100.00,NNW,340,9.0,20.0,61,-99.99,,,-99.99,,2013-10-24 20:02:00,
2013-10-24 15:43:00,36.0,23.0,-100.00,NNW,330,11.0,20.0,58,-99.99,,,-99.99,,2013-10-24 20:43:00,
2013-10-24 15:53:00,36.0,23.0,-100.00,NNW,330,11.0,20.0,58,-99.99,,,-99.99,,2013-10-24 20:53:00,
2013-10-24 16:02:00,36.0,23.0,-100.00,NNW,330,11.0,20.0,58,-99.99,,,-99.99,,2013-10-24 21:02:00,
2013-10-24 16:04:00,38.0,23.0,-100.00,WNW,290,7.0,15.0,54,-99.99,,,-99.99,,2013-10-24 21:04:00,
2013-10-24 16:22:00,38.0,23.0,-100.00,NW,305,4.0,15.0,54,-99.99,,,-99.99,,2013-10-24 21:22:00,
2013-10-24 16:43:00,38.0,23.0,-100.00,WNW,290,7.0,15.0,54,-99.99,,,-99.99,,2013-10-24 21:43:00,
2013-10-24 16:54:00,38.0,23.0,-100.00,WNW,290,7.0,15.0,54,-99.99,,,-99.99,,2013-10-24 21:54:00,
2013-10-24 17:24:00,36.0,23.0,-100.00,NNW,335,7.0,13.0,59,-99.99,,,-99.99,,2013-10-24 22:24:00,
2013-10-24 17:43:00,36.0,23.0,-100.00,NW,320,5.0,13.0,59,-99.99,,,-99.99,,2013-10-24 22:43:00,
2013-10-24 17:54:00,36.0,23.0,-100.00,NW,320,5.0,13.0,59,-99.99,,,-99.99,,2013-10-24 22:54:00,
2013-10-24 18:03:00,36.0,23.0,-100.00,NW,320,5.0,13.0,59,-99.99,,,-99.99,,2013-10-24 23:03:00,
2013-10-24 18:22:00,34.0,23.0,-100.00,NW,320,4.0,10.0,63,-99.99,,,-99.99,,2013-10-24 23:22:00,
2013-10-24 18:43:00,34.0,23.0,-100.00,NW,315,2.0,11.0,64,-99.99,,,-99.99,,2013-10-24 23:43:00,
2013-10-24 18:53:00,34.0,23.0,-100.00,NW,315,2.0,11.0,64,-99.99,,,-99.99,,2013-10-24 23:53:00,
2013-10-24 19:02:00,34.0,23.0,-100.00,NW,315,2.0,11.0,64,-99.99,,,-99.99,,2013-10-25 00:02:00,
2013-10-24 19:42:00,29.0,22.0,-100.00,WNW,295,0.0,0.0,77,-99.99,,,-99.99,,2013-10-25 00:42:00,
2013-10-24 19:52:00,29.0,22.0,-100.00,WNW,295,0.0,0.0,77,-99.99,,,-99.99,,2013-10-25 00:52:00,
2013-10-24 20:02:00,29.0,22.0,-100.00,WNW,295,0.0,0.0,77,-99.99,,,-99.99,,2013-10-25 01:02:00,
2013-10-24 20:22:00,27.0,24.0,-100.00,SW,235,1.0,1.0,89,-99.99,,,-99.99,,2013-10-25 01:22:00,
2013-10-24 20:32:00,27.0,24.0,-100.00,SW,235,1.0,1.0,89,-99.99,,,-99.99,,2013-10-25 01:32:00,
2013-10-24 20:43:00,27.0,24.0,-100.00,SW,235,1.0,1.0,89,-99.99,,,-99.99,,2013-10-25 01:43:00,
2013-10-24 20:53:00,27.0,24.0,-100.00,SW,235,1.0,1.0,89,-99.99,,,-99.99,,2013-10-25 01:53:00,
2013-10-24 21:02:00,27.0,24.0,-100.00,SW,235,1.0,1.0,89,-99.99,,,-99.99,,2013-10-25 02:02:00,
2013-10-24 21:23:00,29.0,27.0,-100.00,SW,235,0.0,0.0,92,-99.99,,,-99.99,,2013-10-25 02:23:00,
2013-10-24 21:32:00,29.0,27.0,-100.00,SW,235,0.0,0.0,92,-99.99,,,-99.99,,2013-10-25 02:32:00,
2013-10-24 21:43:00,29.0,27.0,-100.00,SW,235,0.0,0.0,92,-99.99,,,-99.99,,2013-10-25 02:43:00,
2013-10-24 21:52:00,29.0,27.0,-100.00,SW,235,0.0,0.0,92,-99.99,,,-99.99,,2013-10-25 02:52:00,
2013-10-24 22:03:00,29.0,27.0,-100.00,SW,235,0.0,0.0,92,-99.99,,,-99.99,,2013-10-25 03:03:00,
2013-10-24 22:23:00,32.0,28.0,-100.00,WNW,290,3.0,7.0,86,-99.99,,,-99.99,,2013-10-25 03:23:00,
2013-10-24 22:34:00,32.0,28.0,-100.00,WNW,290,3.0,7.0,86,-99.99,,,-99.99,,2013-10-25 03:34:00,
2013-10-24 22:44:00,32.0,28.0,-100.00,WNW,290,3.0,7.0,86,-99.99,,,-99.99,,2013-10-25 03:44:00,
2013-10-24 22:54:00,32.0,28.0,-100.00,WNW,290,3.0,7.0,86,-99.99,,,-99.99,,2013-10-25 03:54:00,
2013-10-24 23:03:00,32.0,25.0,-100.00,NW,315,2.0,6.0,75,-99.99,,,-99.99,,2013-10-25 04:03:00,
2013-10-24 23:24:00,32.0,25.0,-100.00,NW,315,2.0,6.0,75,-99.99,,,-99.99,,2013-10-25 04:24:00,
2013-10-24 23:34:00,32.0,25.0,-100.00,NW,315,2.0,6.0,75,-99.99,,,-99.99,,2013-10-25 04:34:00,
2013-10-24 23:44:00,32.0,25.0,-100.00,NW,315,2.0,6.0,75,-99.99,,,-99.99,,2013-10-25 04:44:00,
2013-10-24 23:54:00,32.0,25.0,-100.00,NW,315,2.0,6.0,75,-99.99,,,-99.99,,2013-10-25 04:54:00,